createdAt,value
2017-07-19T00:01:35.197Z,5.97
2017-07-19T00:06:36.968Z,5.67
2017-07-19T00:11:39.726Z,5.70
2017-07-19T00:16:42.012Z,5.53
2017-07-19T00:21:43.690Z,5.67
2017-07-19T00:26:45.283Z,6.10
2017-07-19T00:31:48.059Z,5.80
2017-07-19T00:36:49.644Z,5.90
2017-07-19T00:41:51.375Z,6.07
2017-07-19T00:47:07.912Z,6.50
2017-07-19T00:52:09.567Z,7.07
2017-07-19T00:57:12.591Z,6.67
2017-07-19T01:02:14.144Z,7.30
2017-07-19T01:07:16.564Z,7.77
2017-07-19T01:12:18.308Z,7.40
2017-07-19T01:17:19.978Z,7.60
2017-07-19T01:22:21.652Z,7.30
2017-07-19T01:27:23.332Z,7.10
2017-07-19T01:32:24.992Z,7.00
2017-07-19T01:37:26.701Z,7.47
2017-07-19T01:42:28.374Z,6.57
2017-07-19T01:47:30.050Z,7.37
2017-07-19T01:52:31.667Z,7.30
2017-07-19T01:57:33.917Z,7.90
2017-07-19T02:02:35.681Z,8.03
2017-07-19T02:07:37.331Z,7.87
2017-07-19T02:12:40.692Z,8.47
2017-07-19T02:23:12.786Z,10.13
2017-07-19T02:28:15.072Z,8.90
2017-07-19T02:33:16.748Z,9.57
2017-07-19T02:38:18.392Z,9.47
2017-07-19T02:43:35.188Z,9.27
2017-07-19T02:48:55.344Z,9.20
2017-07-19T02:54:11.837Z,9.43
2017-07-19T02:59:29.090Z,9.60
2017-07-19T03:04:45.799Z,9.10
2017-07-19T03:10:02.582Z,9.23
2017-07-19T03:15:19.042Z,10.10
2017-07-19T03:20:35.456Z,9.53
2017-07-19T03:25:37.140Z,9.50
2017-07-19T03:30:39.342Z,8.47
2017-07-19T03:35:42.154Z,9.93
2017-07-19T03:40:43.795Z,9.73
2017-07-19T03:45:45.680Z,9.47
2017-07-19T03:50:48.688Z,10.30
2017-07-19T03:55:50.311Z,11.10
2017-07-19T04:00:52.047Z,10.03
2017-07-19T04:05:53.725Z,10.23
2017-07-19T04:10:55.363Z,10.07
2017-07-19T04:15:57.071Z,9.63
2017-07-19T04:20:58.743Z,10.07
2017-07-19T04:26:00.388Z,10.10
2017-07-19T04:31:03.341Z,10.47
2017-07-19T04:36:05.912Z,11.30
2017-07-19T04:41:07.516Z,10.67
2017-07-19T04:46:09.861Z,12.50
2017-07-19T04:51:12.492Z,10.83
2017-07-19T04:56:14.415Z,10.87
2017-07-19T05:01:16.045Z,11.07
2017-07-19T05:06:18.936Z,10.43
2017-07-19T05:11:20.492Z,11.00
2017-07-19T05:16:23.202Z,10.10
2017-07-19T05:21:24.829Z,10.17
2017-07-19T05:26:28.024Z,11.37
2017-07-19T05:31:29.737Z,10.37
2017-07-19T05:36:32.230Z,9.50
2017-07-19T05:41:33.902Z,9.57
2017-07-19T05:46:35.503Z,9.60
2017-07-19T05:51:37.247Z,9.80
2017-07-19T05:56:38.895Z,9.37
2017-07-19T06:01:42.129Z,9.03
2017-07-19T06:06:45.820Z,9.00
2017-07-19T06:11:47.522Z,8.83
2017-07-19T06:16:49.683Z,8.77
2017-07-19T06:21:52.746Z,8.20
2017-07-19T06:26:55.715Z,8.10
2017-07-19T06:31:57.267Z,7.80
2017-07-19T06:36:59.033Z,7.67
2017-07-19T06:42:00.733Z,8.13
2017-07-19T06:47:03.661Z,8.83
2017-07-19T06:52:06.000Z,8.70
2017-07-19T06:57:08.383Z,8.73
2017-07-19T07:02:12.954Z,8.20
2017-07-19T07:07:14.584Z,8.03
2017-07-19T07:12:16.802Z,7.47
2017-07-19T07:17:20.114Z,8.60
2017-07-19T07:22:21.867Z,7.40
2017-07-19T07:27:24.389Z,7.10
2017-07-19T07:32:26.059Z,7.33
2017-07-19T07:37:27.732Z,7.20
2017-07-19T07:42:29.408Z,6.77
2017-07-19T07:47:31.617Z,6.87
2017-07-19T07:52:33.955Z,6.80
2017-07-19T07:57:35.655Z,5.83
2017-07-19T08:02:37.328Z,6.20
2017-07-19T08:07:39.669Z,5.60
2017-07-19T08:12:41.492Z,5.40
2017-07-19T08:17:43.136Z,5.77
2017-07-19T08:22:44.837Z,5.23
2017-07-19T08:27:46.996Z,5.43
2017-07-19T08:32:50.310Z,5.60
2017-07-19T08:37:52.692Z,6.17
2017-07-19T08:42:55.161Z,5.80
2017-07-19T08:47:56.861Z,6.47
2017-07-19T08:52:59.009Z,6.23
2017-07-19T08:58:01.464Z,7.17
2017-07-19T09:03:04.131Z,6.10
2017-07-19T09:08:05.768Z,6.27
2017-07-19T09:13:07.432Z,6.70
2017-07-19T09:18:09.751Z,6.20
2017-07-19T09:23:12.163Z,5.90
2017-07-19T09:28:13.929Z,5.33
2017-07-19T09:33:15.630Z,6.13
2017-07-19T09:38:17.829Z,6.33
2017-07-19T09:43:20.518Z,6.10
2017-07-19T09:48:22.288Z,6.03
2017-07-19T09:53:23.931Z,6.07
2017-07-19T09:58:25.633Z,6.20
2017-07-19T10:03:27.280Z,5.80
2017-07-19T10:08:28.978Z,5.00
2017-07-19T10:13:31.474Z,5.13
2017-07-19T10:18:33.116Z,5.37
2017-07-19T10:23:34.815Z,5.60
2017-07-19T10:28:36.936Z,5.73
2017-07-19T10:33:38.699Z,5.30
2017-07-19T10:38:40.449Z,5.17
2017-07-19T10:43:43.349Z,6.20
2017-07-19T10:48:44.976Z,5.93
2017-07-19T10:53:46.667Z,5.43
2017-07-19T10:58:50.056Z,6.00
2017-07-19T11:03:52.398Z,5.43
2017-07-19T11:08:54.057Z,5.73
2017-07-19T11:13:55.713Z,5.50
2017-07-19T11:18:57.412Z,5.83
2017-07-19T11:23:59.051Z,5.70
2017-07-19T11:29:01.449Z,6.03
2017-07-19T11:34:03.120Z,5.57
2017-07-19T11:39:05.467Z,5.73
2017-07-19T11:44:07.606Z,6.40
2017-07-19T11:49:09.368Z,5.97
2017-07-19T11:54:11.047Z,5.83
2017-07-19T11:59:12.712Z,5.80
2017-07-19T12:04:14.417Z,6.27
2017-07-19T12:09:16.907Z,5.83
2017-07-19T12:14:18.511Z,6.07
2017-07-19T12:19:20.225Z,5.60
2017-07-19T12:24:21.869Z,5.83
2017-07-19T12:29:23.598Z,5.80
2017-07-19T12:34:25.255Z,6.00
2017-07-19T12:39:26.949Z,5.97
2017-07-19T12:44:29.613Z,5.90
2017-07-19T12:49:31.311Z,5.83
2017-07-19T12:54:34.140Z,6.33
2017-07-19T12:59:35.812Z,5.93
2017-07-19T13:04:38.013Z,6.20
2017-07-19T13:09:39.849Z,5.90
2017-07-19T13:14:42.341Z,5.97
2017-07-19T13:19:44.218Z,6.00
2017-07-19T13:24:45.890Z,5.93
2017-07-19T13:29:47.487Z,6.23
2017-07-19T13:34:49.168Z,6.40
2017-07-19T13:39:51.421Z,6.30
2017-07-19T13:44:53.594Z,6.03
2017-07-19T13:49:55.384Z,6.03
2017-07-19T13:54:57.054Z,5.40
2017-07-19T13:59:58.828Z,5.07
2017-07-19T14:05:00.606Z,5.97
2017-07-19T14:10:02.248Z,5.77
2017-07-19T14:15:03.876Z,5.33
2017-07-19T14:20:06.189Z,5.50
2017-07-19T14:25:07.909Z,5.60
2017-07-19T14:30:09.583Z,5.40
2017-07-19T14:35:11.328Z,5.60
2017-07-19T14:40:12.960Z,5.50
2017-07-19T14:45:14.705Z,5.23
2017-07-19T14:50:16.991Z,5.27
2017-07-19T14:55:18.684Z,5.87
2017-07-19T15:00:20.439Z,5.50
2017-07-19T15:05:22.931Z,5.10
2017-07-19T15:10:25.567Z,5.50
2017-07-19T15:15:27.375Z,5.00
2017-07-19T15:20:28.995Z,5.23
2017-07-19T15:25:30.721Z,5.30
2017-07-19T15:30:33.095Z,5.50
2017-07-19T15:35:34.884Z,5.40
2017-07-19T15:40:37.307Z,5.27
2017-07-19T15:45:38.976Z,5.30
2017-07-19T15:50:40.724Z,5.47
2017-07-19T15:55:43.262Z,5.70
2017-07-19T16:00:45.717Z,5.43
2017-07-19T16:05:48.023Z,5.33
2017-07-19T16:10:49.696Z,6.13
2017-07-19T16:15:52.338Z,5.40
2017-07-19T16:20:53.981Z,5.30
2017-07-19T16:25:55.708Z,5.07
2017-07-19T16:30:58.230Z,4.70
2017-07-19T16:36:00.007Z,4.30
2017-07-19T16:41:01.648Z,4.60
2017-07-19T16:46:04.068Z,5.10
2017-07-19T16:51:05.742Z,4.30
2017-07-19T16:56:07.917Z,5.00
2017-07-19T17:01:09.672Z,4.90
2017-07-19T17:06:11.919Z,4.87
2017-07-19T17:11:13.661Z,4.80
2017-07-19T17:16:15.433Z,4.53
2017-07-19T17:21:18.384Z,5.07
2017-07-19T17:26:20.112Z,4.97
2017-07-19T17:31:21.700Z,5.37
2017-07-19T17:36:23.536Z,4.90
2017-07-19T17:41:25.911Z,5.20
2017-07-19T17:46:30.592Z,5.30
2017-07-19T17:51:33.227Z,5.50
2017-07-19T17:56:35.373Z,5.43
2017-07-19T18:01:37.763Z,5.83
2017-07-19T18:06:40.001Z,6.10
2017-07-19T18:11:42.133Z,5.67
2017-07-19T18:16:44.189Z,5.67
2017-07-19T18:21:48.204Z,5.53
2017-07-19T18:26:50.631Z,5.40
2017-07-19T18:31:52.918Z,5.40
2017-07-19T18:36:55.060Z,5.60
2017-07-19T18:41:57.252Z,6.13
2017-07-19T18:46:59.748Z,6.60
2017-07-19T18:52:03.377Z,5.70
2017-07-19T18:57:05.175Z,5.77
2017-07-19T19:02:06.847Z,6.30
2017-07-19T19:07:10.384Z,6.40
2017-07-19T19:12:12.568Z,6.93
2017-07-19T19:17:14.651Z,6.20
2017-07-19T19:22:16.713Z,6.60
2017-07-19T19:27:19.590Z,7.00
2017-07-19T19:32:21.695Z,6.70
2017-07-19T19:37:23.280Z,7.33
2017-07-19T19:42:25.920Z,7.73
2017-07-19T19:47:27.648Z,8.30
2017-07-19T19:52:29.323Z,7.47
2017-07-19T19:57:31.136Z,7.60
2017-07-19T20:02:33.135Z,7.20
2017-07-19T20:07:35.488Z,6.73
2017-07-19T20:12:39.480Z,6.60
2017-07-19T20:17:41.068Z,6.57
2017-07-19T20:22:42.828Z,6.90
2017-07-19T20:27:44.355Z,6.80
2017-07-19T20:32:46.096Z,6.70
2017-07-19T20:37:48.413Z,7.07
2017-07-19T20:42:50.049Z,6.53
2017-07-19T20:47:51.776Z,6.83
2017-07-19T20:52:53.910Z,7.40
2017-07-19T20:57:56.088Z,6.63
2017-07-19T21:02:57.724Z,7.23
2017-07-19T21:08:00.339Z,6.50
2017-07-19T21:13:03.067Z,6.37
2017-07-19T21:18:06.039Z,6.37
2017-07-19T21:23:08.275Z,6.80
2017-07-19T21:28:09.999Z,6.60
2017-07-19T21:33:11.670Z,6.70
2017-07-19T21:38:13.315Z,6.90
2017-07-19T21:43:14.928Z,6.87
2017-07-19T21:48:17.291Z,7.37
2017-07-19T21:53:18.948Z,6.97
2017-07-19T21:58:20.572Z,6.53
2017-07-19T22:03:22.855Z,7.37
2017-07-19T22:08:24.523Z,7.40
2017-07-19T22:13:27.222Z,7.13
2017-07-19T22:18:28.977Z,6.80
2017-07-19T22:23:30.652Z,6.80
2017-07-19T22:28:32.326Z,7.60
2017-07-19T22:33:34.505Z,7.30
2017-07-19T22:38:36.200Z,7.17
2017-07-19T22:43:37.958Z,7.00
2017-07-19T22:48:39.548Z,7.20
2017-07-19T22:53:42.123Z,7.90
2017-07-19T22:58:44.299Z,7.60
2017-07-19T23:03:46.608Z,8.20
2017-07-19T23:08:48.339Z,8.50
2017-07-19T23:13:49.976Z,8.60
2017-07-19T23:18:52.271Z,8.97
2017-07-19T23:23:54.485Z,9.40
2017-07-19T23:28:56.824Z,8.33
2017-07-19T23:33:58.573Z,8.63
2017-07-19T23:39:00.252Z,9.10
2017-07-19T23:44:01.835Z,8.87
2017-07-19T23:49:03.596Z,8.67
2017-07-19T23:54:05.883Z,8.20
2017-07-19T23:59:08.127Z,7.67
